Airfield :
LOGIN :

Register | Disclaimer

   EN    FR    IT 

 










Legend :    VFR   Marginal VFR   IFR   Intensive IFR   Very Intensive IFR
Visi :
Ceiling :
>= 8 km
>= 3000ft
5 to 8 km
1000 to 3000 ft
1500m to 5 km
500 to 1000 ft
800 to 1500m
200 to 500 ft
< 800m
< 200 ft
Symbols :   Thunderstorms  Fog  Heavy snow  Heavy precipitations  Wind > 20 kt
SIGMETs :     Misc.  Thunderstorms  Icing  Turbulence  Mountain Waves  Volcanic Ashes







- Airport Elevation : 172 ft
- IATA code : LPI


ESSL - Saab

CURRENT METAR :
  • 101650Z 36006KT 320V020 9999 BKN012 BKN016 01/M00 Q0997 R29/29//95

EXPIRED METARs :
  • 101620Z 35009KT 9999 FEW012 SCT016 BKN025 01/M00 Q0997 R29/19//95
  • 101550Z 33007KT 9999 SCT013 BKN029 01/M00 Q0996 R29/19//95
  • 101520Z 33007KT 290V360 9999 SCT012 BKN025 OVC031 01/00 Q0996 R29/19//95
  • 101450Z 32006KT 9999 SCT013 BKN031 01/00 Q0996 R29/19//95
  • 101420Z 31007KT 9999 SCT013 BKN036 01/00 Q0995 R29/19//95

TAF TAF ESSL
Valid from the 10 at 15:00 until the 10 at 23:00 UTC


101430Z 1015/1023 33008KT 9999 BKN025
PROB40 1015/1016 3000 SNRA VV012
BECMG 1016/1018 5000 SNRA BKN008
TEMPO 1016/1020 2500 SN VV015
TEMPO 1020/1023 2000 RASN BKN004
No reported NOTAMs for that airfield.



MET'MAP, your aeronautical weather chart ! - Copyright ORBIFLY December 2007 - Disclaimer

ORBIFLY MET'MAP TEAM :

Programming & Development : Alexandra Zaïnal
Concept & Development : Baudouin d'Aumeries
Co-Development & Prog : Marc-Olivier Méhu
Technical & hardware support : Manuel Goepfert

Contact : metmap@orbifly.com




SOURCES & CREDITS :

   NOAA